Terminal Aerodrome Forecast
Issued by NWS Cleveland, OH

Home | Current Version | Previous Version | Text Only | Print | Product List | Glossary Off
Versions: 1 2 3 4 5 6 7 8 9 10 11 12 13 14

754
FTUS41 KCLE 251120
TAFMFD
TAF
KMFD 251120Z 2512/2612 12010KT P6SM VCSH BKN035 BKN150
      TEMPO 2512/2514 6SM -SHRA BKN025
     FM251500 13012G20KT P6SM BKN035
     FM260100 14008KT P6SM SCT040 BKN150=

USA.gov is the U.S. government's official web portal to all federal, state and local government web resources and services.